sensor_id;sensor_type;location;lat;lon;timestamp;temperature;humidity
31455;DHT22;18084;53.028;8.834;2023-08-24T04:33:06;16.90;99.90
31455;DHT22;18084;53.028;8.834;2023-08-24T04:38:20;16.80;99.90
31455;DHT22;18084;53.028;8.834;2023-08-24T04:41:08;16.90;99.90
31455;DHT22;18084;53.028;8.834;2023-08-24T04:43:50;16.90;99.90
31455;DHT22;18084;53.028;8.834;2023-08-24T06:12:34;20.00;99.90
31455;DHT22;18084;53.028;8.834;2023-08-24T06:15:00;20.60;99.90
31455;DHT22;18084;53.028;8.834;2023-08-24T06:17:28;20.80;96.80
31455;DHT22;18084;53.028;8.834;2023-08-24T06:19:53;21.00;10.70
31455;DHT22;18084;53.028;8.834;2023-08-24T06:24:45;21.10;1.00
31455;DHT22;18084;53.028;8.834;2023-08-24T06:29:36;21.40;1.00
31455;DHT22;18084;53.028;8.834;2023-08-24T06:39:21;22.30;1.00
31455;DHT22;18084;53.028;8.834;2023-08-24T06:41:46;22.70;99.90
31455;DHT22;18084;53.028;8.834;2023-08-24T06:44:12;22.60;99.90
31455;DHT22;18084;53.028;8.834;2023-08-24T06:46:37;24.20;99.90
31455;DHT22;18084;53.028;8.834;2023-08-24T06:49:03;23.10;99.90
31455;DHT22;18084;53.028;8.834;2023-08-24T06:51:29;23.60;99.90
31455;DHT22;18084;53.028;8.834;2023-08-24T06:53:54;23.50;99.90
31455;DHT22;18084;53.028;8.834;2023-08-24T06:56:20;23.90;52.70
31455;DHT22;18084;53.028;8.834;2023-08-24T06:58:47;24.00;1.00
31455;DHT22;18084;53.028;8.834;2023-08-24T07:01:13;24.30;81.30
31455;DHT22;18084;53.028;8.834;2023-08-24T07:03:38;26.80;1.00
31455;DHT22;18084;53.028;8.834;2023-08-24T07:06:07;24.50;99.90
31455;DHT22;18084;53.028;8.834;2023-08-24T07:08:34;24.80;99.90
31455;DHT22;18084;53.028;8.834;2023-08-24T07:11:00;25.80;99.90
31455;DHT22;18084;53.028;8.834;2023-08-24T07:13:25;25.30;22.90
31455;DHT22;18084;53.028;8.834;2023-08-24T07:20:43;26.10;25.70
31455;DHT22;18084;53.028;8.834;2023-08-24T07:23:09;28.00;49.60
31455;DHT22;18084;53.028;8.834;2023-08-24T07:25:35;27.80;1.00
31455;DHT22;18084;53.028;8.834;2023-08-24T07:28:01;27.70;99.90
31455;DHT22;18084;53.028;8.834;2023-08-24T07:32:55;26.10;99.90
31455;DHT22;18084;53.028;8.834;2023-08-24T07:35:21;25.90;99.90
31455;DHT22;18084;53.028;8.834;2023-08-24T07:37:50;26.40;99.90
31455;DHT22;18084;53.028;8.834;2023-08-24T07:40:16;26.10;99.90
31455;DHT22;18084;53.028;8.834;2023-08-24T07:42:50;26.70;99.90
31455;DHT22;18084;53.028;8.834;2023-08-24T07:45:18;27.10;99.90
31455;DHT22;18084;53.028;8.834;2023-08-24T07:47:44;27.40;53.80
31455;DHT22;18084;53.028;8.834;2023-08-24T07:50:10;28.10;41.10
31455;DHT22;18084;53.028;8.834;2023-08-24T07:52:39;27.70;1.00
31455;DHT22;18084;53.028;8.834;2023-08-24T07:55:06;27.30;1.00
31455;DHT22;18084;53.028;8.834;2023-08-24T07:57:33;27.30;1.00
31455;DHT22;18084;53.028;8.834;2023-08-24T07:59:59;28.50;1.00
31455;DHT22;18084;53.028;8.834;2023-08-24T08:02:24;27.40;1.00
31455;DHT22;18084;53.028;8.834;2023-08-24T08:04:50;29.10;1.00
31455;DHT22;18084;53.028;8.834;2023-08-24T08:07:15;28.30;99.90
31455;DHT22;18084;53.028;8.834;2023-08-24T08:12:07;28.20;99.90
31455;DHT22;18084;53.028;8.834;2023-08-24T08:14:33;28.10;99.90
31455;DHT22;18084;53.028;8.834;2023-08-24T08:16:58;29.90;99.90
31455;DHT22;18084;53.028;8.834;2023-08-24T08:24:19;27.90;99.90
31455;DHT22;18084;53.028;8.834;2023-08-24T08:26:45;28.20;99.90
31455;DHT22;18084;53.028;8.834;2023-08-24T08:29:10;28.50;99.90
31455;DHT22;18084;53.028;8.834;2023-08-24T08:31:36;28.50;99.90
31455;DHT22;18084;53.028;8.834;2023-08-24T08:34:01;28.30;99.90
31455;DHT22;18084;53.028;8.834;2023-08-24T08:38:58;28.60;99.90
31455;DHT22;18084;53.028;8.834;2023-08-24T08:41:26;30.30;99.90
31455;DHT22;18084;53.028;8.834;2023-08-24T08:43:52;28.70;90.40
31455;DHT22;18084;53.028;8.834;2023-08-24T08:46:18;28.80;99.90
31455;DHT22;18084;53.028;8.834;2023-08-24T08:48:45;28.80;94.60
31455;DHT22;18084;53.028;8.834;2023-08-24T08:51:13;30.40;99.90
31455;DHT22;18084;53.028;8.834;2023-08-24T08:53:39;29.30;72.70
31455;DHT22;18084;53.028;8.834;2023-08-24T08:56:06;29.30;57.40
31455;DHT22;18084;53.028;8.834;2023-08-24T08:58:33;29.50;2.40
31455;DHT22;18084;53.028;8.834;2023-08-24T09:01:02;29.70;11.40
31455;DHT22;18084;53.028;8.834;2023-08-24T09:03:30;29.60;31.60
31455;DHT22;18084;53.028;8.834;2023-08-24T09:05:57;29.50;16.60
31455;DHT22;18084;53.028;8.834;2023-08-24T09:08:23;28.50;1.00
31455;DHT22;18084;53.028;8.834;2023-08-24T09:10:49;29.40;4.90
31455;DHT22;18084;53.028;8.834;2023-08-24T09:13:15;29.50;1.00
31455;DHT22;18084;53.028;8.834;2023-08-24T09:15:40;29.70;1.00
31455;DHT22;18084;53.028;8.834;2023-08-24T09:18:06;29.60;1.00
31455;DHT22;18084;53.028;8.834;2023-08-24T09:20:31;29.30;1.00
31455;DHT22;18084;53.028;8.834;2023-08-24T09:25:28;29.50;1.00
31455;DHT22;18084;53.028;8.834;2023-08-24T09:28:01;29.50;1.00
31455;DHT22;18084;53.028;8.834;2023-08-24T09:30:30;29.80;1.00
31455;DHT22;18084;53.028;8.834;2023-08-24T09:33:04;29.90;1.00
31455;DHT22;18084;53.028;8.834;2023-08-24T09:35:35;29.90;1.00
31455;DHT22;18084;53.028;8.834;2023-08-24T09:38:15;29.50;1.00
31455;DHT22;18084;53.028;8.834;2023-08-24T09:40:45;29.70;1.00
31455;DHT22;18084;53.028;8.834;2023-08-24T09:43:13;30.20;1.00
31455;DHT22;18084;53.028;8.834;2023-08-24T09:45:56;28.90;1.00
31455;DHT22;18084;53.028;8.834;2023-08-24T09:48:22;28.90;1.00
31455;DHT22;18084;53.028;8.834;2023-08-24T09:50:52;28.80;1.00
31455;DHT22;18084;53.028;8.834;2023-08-24T09:53:22;28.90;1.00
31455;DHT22;18084;53.028;8.834;2023-08-24T09:56:01;28.80;1.00
31455;DHT22;18084;53.028;8.834;2023-08-24T09:58:27;28.50;1.00
31455;DHT22;18084;53.028;8.834;2023-08-24T10:00:54;28.80;1.00
31455;DHT22;18084;53.028;8.834;2023-08-24T10:03:24;28.30;1.00
31455;DHT22;18084;53.028;8.834;2023-08-24T10:05:52;28.30;1.00
31455;DHT22;18084;53.028;8.834;2023-08-24T10:08:36;28.20;1.00
31455;DHT22;18084;53.028;8.834;2023-08-24T10:13:39;28.50;1.00
31455;DHT22;18084;53.028;8.834;2023-08-24T10:16:07;29.10;20.40
31455;DHT22;18084;53.028;8.834;2023-08-24T10:18:34;28.40;6.90
31455;DHT22;18084;53.028;8.834;2023-08-24T10:21:00;28.40;1.00
31455;DHT22;18084;53.028;8.834;2023-08-24T10:23:29;28.30;11.10
31455;DHT22;18084;53.028;8.834;2023-08-24T10:25:55;29.20;36.80
31455;DHT22;18084;53.028;8.834;2023-08-24T10:28:23;28.10;39.10
31455;DHT22;18084;53.028;8.834;2023-08-24T10:35:43;27.70;87.50
31455;DHT22;18084;53.028;8.834;2023-08-24T10:38:29;27.90;52.10
31455;DHT22;18084;53.028;8.834;2023-08-24T10:41:02;27.90;66.00
31455;DHT22;18084;53.028;8.834;2023-08-24T10:45:59;28.30;71.10
31455;DHT22;18084;53.028;8.834;2023-08-24T10:48:29;28.20;33.90
31455;DHT22;18084;53.028;8.834;2023-08-24T10:53:47;28.10;75.70
31455;DHT22;18084;53.028;8.834;2023-08-24T10:56:15;28.20;67.10
31455;DHT22;18084;53.028;8.834;2023-08-24T10:58:41;31.10;83.10
31455;DHT22;18084;53.028;8.834;2023-08-24T11:01:20;29.30;9.10
31455;DHT22;18084;53.028;8.834;2023-08-24T11:03:56;28.40;16.20
31455;DHT22;18084;53.028;8.834;2023-08-24T11:06:23;28.20;25.10
31455;DHT22;18084;53.028;8.834;2023-08-24T11:09:07;28.30;35.20
31455;DHT22;18084;53.028;8.834;2023-08-24T11:11:39;28.10;1.00
31455;DHT22;18084;53.028;8.834;2023-08-24T11:14:18;28.20;24.00
31455;DHT22;18084;53.028;8.834;2023-08-24T11:16:57;27.90;24.10
31455;DHT22;18084;53.028;8.834;2023-08-24T11:21:50;27.90;1.00
31455;DHT22;18084;53.028;8.834;2023-08-24T11:24:16;28.10;23.40
31455;DHT22;18084;53.028;8.834;2023-08-24T11:26:47;28.00;60.20
31455;DHT22;18084;53.028;8.834;2023-08-24T11:29:17;28.00;16.30
31455;DHT22;18084;53.028;8.834;2023-08-24T11:31:52;28.10;7.00
31455;DHT22;18084;53.028;8.834;2023-08-24T11:36:46;27.70;78.80
31455;DHT22;18084;53.028;8.834;2023-08-24T11:39:17;28.00;91.20
31455;DHT22;18084;53.028;8.834;2023-08-24T11:42:06;27.60;73.10
31455;DHT22;18084;53.028;8.834;2023-08-24T11:44:49;27.70;99.90
31455;DHT22;18084;53.028;8.834;2023-08-24T11:47:15;27.60;99.90
31455;DHT22;18084;53.028;8.834;2023-08-24T11:49:41;27.80;78.60
31455;DHT22;18084;53.028;8.834;2023-08-24T11:52:08;28.10;13.00
31455;DHT22;18084;53.028;8.834;2023-08-24T11:54:34;28.10;6.90
31455;DHT22;18084;53.028;8.834;2023-08-24T11:56:59;28.10;1.00
31455;DHT22;18084;53.028;8.834;2023-08-24T11:59:25;28.10;54.80
31455;DHT22;18084;53.028;8.834;2023-08-24T12:01:52;28.20;1.00
31455;DHT22;18084;53.028;8.834;2023-08-24T12:06:44;28.50;24.90
31455;DHT22;18084;53.028;8.834;2023-08-24T12:09:10;30.80;99.90
31455;DHT22;18084;53.028;8.834;2023-08-24T12:11:37;28.20;11.30
31455;DHT22;18084;53.028;8.834;2023-08-24T12:14:04;28.60;41.80
31455;DHT22;18084;53.028;8.834;2023-08-24T12:16:35;27.60;36.50
31455;DHT22;18084;53.028;8.834;2023-08-24T12:19:01;27.70;67.80
31455;DHT22;18084;53.028;8.834;2023-08-24T12:21:30;27.60;27.90
31455;DHT22;18084;53.028;8.834;2023-08-24T12:24:03;27.70;30.60
31455;DHT22;18084;53.028;8.834;2023-08-24T12:26:31;27.60;1.00
31455;DHT22;18084;53.028;8.834;2023-08-24T12:29:02;27.50;7.70
31455;DHT22;18084;53.028;8.834;2023-08-24T12:31:28;27.60;60.70
31455;DHT22;18084;53.028;8.834;2023-08-24T12:34:07;27.70;65.30
31455;DHT22;18084;53.028;8.834;2023-08-24T12:36:37;29.50;99.90
31455;DHT22;18084;53.028;8.834;2023-08-24T12:39:04;28.00;46.20
31455;DHT22;18084;53.028;8.834;2023-08-24T12:43:56;28.00;9.10
31455;DHT22;18084;53.028;8.834;2023-08-24T12:46:22;28.10;1.00
31455;DHT22;18084;53.028;8.834;2023-08-24T12:48:47;28.00;1.00
31455;DHT22;18084;53.028;8.834;2023-08-24T12:51:13;28.00;1.00
31455;DHT22;18084;53.028;8.834;2023-08-24T12:53:38;28.10;59.70
31455;DHT22;18084;53.028;8.834;2023-08-24T12:58:31;27.90;22.70
31455;DHT22;18084;53.028;8.834;2023-08-24T13:08:15;28.30;1.00
31455;DHT22;18084;53.028;8.834;2023-08-24T13:10:41;28.50;1.00
31455;DHT22;18084;53.028;8.834;2023-08-24T13:13:07;28.40;3.70
31455;DHT22;18084;53.028;8.834;2023-08-24T13:17:59;28.60;1.00
31455;DHT22;18084;53.028;8.834;2023-08-24T13:20:25;28.60;1.00
31455;DHT22;18084;53.028;8.834;2023-08-24T13:30:11;28.40;1.00
31455;DHT22;18084;53.028;8.834;2023-08-24T13:35:04;28.40;1.00
31455;DHT22;18084;53.028;8.834;2023-08-24T13:37:30;28.30;1.00
31455;DHT22;18084;53.028;8.834;2023-08-24T13:39:57;28.30;1.00
31455;DHT22;18084;53.028;8.834;2023-08-24T13:42:23;28.50;1.00
31455;DHT22;18084;53.028;8.834;2023-08-24T13:44:49;28.50;1.00
31455;DHT22;18084;53.028;8.834;2023-08-24T13:47:14;28.70;1.00
31455;DHT22;18084;53.028;8.834;2023-08-24T13:49:40;28.70;1.00
31455;DHT22;18084;53.028;8.834;2023-08-24T13:52:06;28.60;1.00
31455;DHT22;18084;53.028;8.834;2023-08-24T14:01:51;28.50;1.00
31455;DHT22;18084;53.028;8.834;2023-08-24T14:06:43;28.30;1.00
31455;DHT22;18084;53.028;8.834;2023-08-24T14:09:08;28.40;1.00
31455;DHT22;18084;53.028;8.834;2023-08-24T14:11:37;28.30;1.00
31455;DHT22;18084;53.028;8.834;2023-08-24T14:18:55;28.30;1.00
31455;DHT22;18084;53.028;8.834;2023-08-24T14:26:14;28.60;1.00
31455;DHT22;18084;53.028;8.834;2023-08-24T14:29:06;28.50;1.00
31455;DHT22;18084;53.028;8.834;2023-08-24T14:34:02;28.30;1.00
31455;DHT22;18084;53.028;8.834;2023-08-24T14:41:29;28.30;1.00
31455;DHT22;18084;53.028;8.834;2023-08-24T14:43:55;28.20;1.00
31455;DHT22;18084;53.028;8.834;2023-08-24T14:53:40;28.00;1.00
31455;DHT22;18084;53.028;8.834;2023-08-24T14:56:12;28.40;1.00
31455;DHT22;18084;53.028;8.834;2023-08-24T15:01:07;28.10;1.00
31455;DHT22;18084;53.028;8.834;2023-08-24T15:06:00;28.10;1.00
31455;DHT22;18084;53.028;8.834;2023-08-24T15:08:28;28.00;1.00
31455;DHT22;18084;53.028;8.834;2023-08-24T15:10:57;28.50;1.00
31455;DHT22;18084;53.028;8.834;2023-08-24T15:15:50;27.90;1.00
31455;DHT22;18084;53.028;8.834;2023-08-24T15:18:28;27.90;1.00
31455;DHT22;18084;53.028;8.834;2023-08-24T15:24:41;27.90;1.00
31455;DHT22;18084;53.028;8.834;2023-08-24T15:55:30;27.30;1.00
31455;DHT22;18084;53.028;8.834;2023-08-24T15:57:59;27.20;15.40
31455;DHT22;18084;53.028;8.834;2023-08-24T16:00:25;27.00;5.20
31455;DHT22;18084;53.028;8.834;2023-08-24T16:02:51;29.40;38.30
31455;DHT22;18084;53.028;8.834;2023-08-24T16:05:17;30.00;43.60
31455;DHT22;18084;53.028;8.834;2023-08-24T16:07:42;26.90;43.30
31455;DHT22;18084;53.028;8.834;2023-08-24T16:10:08;26.90;90.50
31455;DHT22;18084;53.028;8.834;2023-08-24T16:15:00;26.80;91.80
31455;DHT22;18084;53.028;8.834;2023-08-24T16:19:52;26.70;99.90
31455;DHT22;18084;53.028;8.834;2023-08-24T16:24:43;26.60;99.90
31455;DHT22;18084;53.028;8.834;2023-08-24T16:29:35;26.50;99.90
31455;DHT22;18084;53.028;8.834;2023-08-24T16:32:00;28.50;99.90
31455;DHT22;18084;53.028;8.834;2023-08-24T16:37:01;26.40;99.90
31455;DHT22;18084;53.028;8.834;2023-08-24T16:41:56;26.30;1.00
31455;DHT22;18084;53.028;8.834;2023-08-24T16:44:21;26.30;1.00
31455;DHT22;18084;53.028;8.834;2023-08-24T16:46:47;27.10;1.00
31455;DHT22;18084;53.028;8.834;2023-08-24T16:49:12;26.20;1.00
31455;DHT22;18084;53.028;8.834;2023-08-24T16:51:38;25.70;51.40
31455;DHT22;18084;53.028;8.834;2023-08-24T16:54:04;26.20;84.90
31455;DHT22;18084;53.028;8.834;2023-08-24T16:56:29;26.00;99.90
31455;DHT22;18084;53.028;8.834;2023-08-24T16:58:55;26.10;99.90
31455;DHT22;18084;53.028;8.834;2023-08-24T17:01:20;26.00;99.90
31455;DHT22;18084;53.028;8.834;2023-08-24T17:08:38;25.80;99.90
31455;DHT22;18084;53.028;8.834;2023-08-24T17:11:03;25.60;99.90
31455;DHT22;18084;53.028;8.834;2023-08-24T17:13:29;25.60;42.50
31455;DHT22;18084;53.028;8.834;2023-08-24T17:15:57;25.60;51.90
31455;DHT22;18084;53.028;8.834;2023-08-24T17:18:23;25.50;68.90
31455;DHT22;18084;53.028;8.834;2023-08-24T17:21:08;25.40;99.90
31455;DHT22;18084;53.028;8.834;2023-08-24T17:24:22;25.40;99.90
31455;DHT22;18084;53.028;8.834;2023-08-24T17:29:18;25.40;10.40
31455;DHT22;18084;53.028;8.834;2023-08-24T17:34:13;25.30;99.90
31455;DHT22;18084;53.028;8.834;2023-08-24T17:37:11;25.30;99.90
31455;DHT22;18084;53.028;8.834;2023-08-24T17:51:49;25.10;99.90
31455;DHT22;18084;53.028;8.834;2023-08-24T17:59:21;25.00;99.90
31455;DHT22;18084;53.028;8.834;2023-08-24T18:11:36;24.80;99.90
31455;DHT22;18084;53.028;8.834;2023-08-24T18:14:23;24.80;99.90
31455;DHT22;18084;53.028;8.834;2023-08-24T18:20:27;24.70;99.90
31455;DHT22;18084;53.028;8.834;2023-08-24T18:23:38;24.70;55.90
31455;DHT22;18084;53.028;8.834;2023-08-24T18:26:29;24.70;1.00
31455;DHT22;18084;53.028;8.834;2023-08-24T18:29:26;24.60;99.90
31455;DHT22;18084;53.028;8.834;2023-08-24T18:32:03;24.60;1.00
31455;DHT22;18084;53.028;8.834;2023-08-24T18:48:14;24.40;99.90
31455;DHT22;18084;53.028;8.834;2023-08-24T18:51:11;24.00;54.80
31455;DHT22;18084;53.028;8.834;2023-08-24T18:53:54;23.30;99.90
31455;DHT22;18084;53.028;8.834;2023-08-24T18:59:11;21.90;99.90
31455;DHT22;18084;53.028;8.834;2023-08-24T19:08:07;21.40;99.90
31455;DHT22;18084;53.028;8.834;2023-08-24T19:11:04;21.20;99.90
31455;DHT22;18084;53.028;8.834;2023-08-24T19:16:51;21.20;99.90
31455;DHT22;18084;53.028;8.834;2023-08-24T19:19:36;21.20;99.90
31455;DHT22;18084;53.028;8.834;2023-08-24T19:24:54;21.10;99.90
31455;DHT22;18084;53.028;8.834;2023-08-24T19:27:43;21.00;99.90
31455;DHT22;18084;53.028;8.834;2023-08-24T19:37:50;21.20;99.90
31455;DHT22;18084;53.028;8.834;2023-08-24T19:51:30;21.20;99.90
31455;DHT22;18084;53.028;8.834;2023-08-24T19:53:57;20.80;99.90
31455;DHT22;18084;53.028;8.834;2023-08-24T19:56:23;21.10;99.90
